Time;durP1;ratioP1;P1;durP2;ratioP2;P2;SDS_P1;SDS_P2;PMS_P1;PMS_P2;Temp;Humidity;BMP_temperature;BMP_pressure;BME280_temperature;BME280_humidity;BME280_pressure;Samples;Min_cycle;Max_cycle;Signal;HPM_P1;HPM_P2
2022/03/30 00:01:32;;;;;;;9.13;3.63;;;3.50;99.90;;;;;;5033965;28;20288;-53
2022/03/30 00:03:59;;;;;;;5.05;3.13;;;3.50;99.90;;;;;;5033114;28;20198;-52
2022/03/30 00:06:26;;;;;;;9.32;3.88;;;3.50;99.90;;;;;;5033011;28;20331;-52
2022/03/30 00:08:54;;;;;;;7.90;3.53;;;3.50;99.90;;;;;;5035037;28;20202;-53
2022/03/30 00:11:22;;;;;;;9.55;3.90;;;3.50;99.90;;;;;;5035559;28;20209;-52
2022/03/30 00:13:49;;;;;;;12.23;4.40;;;3.50;99.90;;;;;;5036051;28;20701;-54
2022/03/30 00:16:18;;;;;;;8.25;3.35;;;3.50;99.90;;;;;;5034075;28;20202;-53
2022/03/30 00:18:45;;;;;;;5.55;4.22;;;3.40;99.90;;;;;;5034887;28;20187;-53
2022/03/30 00:21:13;;;;;;;4.38;3.78;;;3.40;99.90;;;;;;5035844;28;20206;-53
2022/03/30 00:23:40;;;;;;;11.15;3.55;;;3.40;99.90;;;;;;5035742;28;20245;-52
2022/03/30 00:26:07;;;;;;;11.77;3.42;;;3.30;99.90;;;;;;5040631;28;20202;-52
2022/03/30 00:28:34;;;;;;;10.65;3.35;;;3.30;99.90;;;;;;5038907;28;20206;-54
2022/03/30 00:31:01;;;;;;;5.13;3.40;;;3.30;99.90;;;;;;5039438;28;20206;-53
2022/03/30 00:33:30;;;;;;;7.95;3.92;;;3.30;99.90;;;;;;5038874;28;20206;-53
2022/03/30 00:35:57;;;;;;;10.25;3.70;;;3.20;99.90;;;;;;5037921;28;20639;-52
2022/03/30 00:38:24;;;;;;;12.05;3.20;;;3.20;99.90;;;;;;5038271;28;20226;-52
2022/03/30 00:40:51;;;;;;;4.88;3.70;;;3.10;99.90;;;;;;5037426;28;20202;-53
2022/03/30 00:43:19;;;;;;;9.23;3.10;;;3.10;99.90;;;;;;5038536;28;20218;-54
2022/03/30 00:45:46;;;;;;;7.25;3.13;;;3.10;99.90;;;;;;5038989;28;20213;-53
2022/03/30 00:48:13;;;;;;;12.02;3.55;;;3.00;99.90;;;;;;5038744;28;20226;-53
2022/03/30 00:50:42;;;;;;;15.82;3.45;;;3.00;99.90;;;;;;5038666;28;20198;-53
2022/03/30 00:53:09;;;;;;;7.78;3.70;;;3.00;99.90;;;;;;5039691;28;20206;-52
2022/03/30 00:55:36;;;;;;;4.35;2.53;;;2.90;99.90;;;;;;5039222;28;20538;-52
2022/03/30 00:58:04;;;;;;;6.25;3.03;;;2.90;99.90;;;;;;5038063;28;20652;-52
2022/03/30 01:00:31;;;;;;;5.95;3.25;;;2.90;99.90;;;;;;5037609;28;20225;-52
2022/03/30 01:02:58;;;;;;;7.88;3.00;;;2.90;99.90;;;;;;5037108;28;20214;-53
2022/03/30 01:05:25;;;;;;;8.73;2.92;;;2.80;99.90;;;;;;5036799;28;20199;-51
2022/03/30 01:07:57;;;;;;;11.80;3.63;;;2.80;99.90;;;;;;5036672;28;20227;-53
2022/03/30 01:10:25;;;;;;;9.75;3.83;;;2.80;99.90;;;;;;5036668;28;20199;-52
2022/03/30 01:12:54;;;;;;;13.15;4.10;;;2.80;99.90;;;;;;5036178;28;20209;-52
2022/03/30 01:15:22;;;;;;;7.78;3.90;;;2.80;99.90;;;;;;5036560;28;20272;-52
2022/03/30 01:17:49;;;;;;;8.55;4.03;;;2.80;99.90;;;;;;5035986;28;20593;-51
2022/03/30 01:20:21;;;;;;;8.18;3.97;;;2.70;99.90;;;;;;5036412;28;20206;-53
2022/03/30 01:22:50;;;;;;;16.92;5.60;;;2.70;99.90;;;;;;5036431;28;20256;-52
2022/03/30 01:25:18;;;;;;;11.48;5.20;;;2.70;99.90;;;;;;5036023;28;20666;-52
2022/03/30 01:27:45;;;;;;;8.48;4.90;;;2.70;99.90;;;;;;5035938;28;20222;-51
2022/03/30 01:33:02;;;;;;;12.68;5.47;;;2.70;99.90;;;;;;5035879;28;20224;-52
2022/03/30 01:35:29;;;;;;;12.20;5.95;;;2.70;99.90;;;;;;5035870;28;20276;-52
2022/03/30 01:37:58;;;;;;;10.95;6.45;;;2.60;99.90;;;;;;5035110;28;20226;-52
2022/03/30 01:40:25;;;;;;;14.85;8.00;;;2.60;99.90;;;;;;5036004;28;20210;-53
2022/03/30 01:42:52;;;;;;;11.93;6.68;;;2.60;99.90;;;;;;5035770;28;20213;-52
2022/03/30 01:45:19;;;;;;;14.70;6.32;;;2.60;99.90;;;;;;5035462;28;20205;-52
2022/03/30 01:47:51;;;;;;;12.20;5.80;;;2.60;99.90;;;;;;5035601;28;20222;-51
2022/03/30 01:50:19;;;;;;;12.57;7.63;;;2.60;99.90;;;;;;5035450;28;20210;-52
2022/03/30 01:52:46;;;;;;;11.50;7.10;;;2.60;99.90;;;;;;5035650;28;20213;-52
2022/03/30 01:55:16;;;;;;;16.65;6.38;;;2.60;99.90;;;;;;5035612;28;20215;-53
2022/03/30 01:57:43;;;;;;;16.20;7.80;;;2.50;99.90;;;;;;5035512;28;20227;-53
2022/03/30 02:00:14;;;;;;;16.50;7.32;;;2.50;99.90;;;;;;5035163;28;20655;-52
2022/03/30 02:02:42;;;;;;;11.65;7.43;;;2.40;99.90;;;;;;5035548;28;20305;-52
2022/03/30 02:05:10;;;;;;;11.93;7.18;;;2.40;99.90;;;;;;5035565;28;20202;-52
2022/03/30 02:07:37;;;;;;;9.90;6.55;;;2.30;99.90;;;;;;5035158;28;20225;-52
2022/03/30 02:10:06;;;;;;;13.30;6.72;;;2.30;99.90;;;;;;5035416;28;20206;-52
2022/03/30 02:12:35;;;;;;;16.27;7.88;;;2.20;99.90;;;;;;5035951;28;20198;-52
2022/03/30 02:15:02;;;;;;;13.70;6.40;;;2.20;99.90;;;;;;5035963;28;20233;-52
2022/03/30 02:17:29;;;;;;;12.07;7.38;;;2.20;99.90;;;;;;5035690;28;20234;-50
2022/03/30 02:19:56;;;;;;;15.73;7.95;;;2.20;99.90;;;;;;5035548;28;20202;-53
2022/03/30 02:22:23;;;;;;;14.35;7.20;;;2.10;99.90;;;;;;5035935;28;20199;-52
2022/03/30 02:24:51;;;;;;;14.27;6.95;;;2.10;99.90;;;;;;5035751;28;20201;-52
2022/03/30 02:27:19;;;;;;;15.57;7.38;;;2.10;99.90;;;;;;5035572;28;20702;-53
2022/03/30 02:29:49;;;;;;;11.18;6.43;;;2.10;99.90;;;;;;5035221;28;20252;-51
2022/03/30 02:32:16;;;;;;;14.35;6.47;;;2.10;99.90;;;;;;5035997;28;20209;-53
2022/03/30 02:34:44;;;;;;;14.38;6.72;;;2.10;99.90;;;;;;5035387;28;20226;-52
2022/03/30 02:37:11;;;;;;;12.57;6.63;;;2.10;99.90;;;;;;5035661;28;20222;-52
2022/03/30 02:39:39;;;;;;;14.90;7.05;;;2.10;99.90;;;;;;5034861;28;20206;-53
2022/03/30 02:42:07;;;;;;;9.27;6.88;;;2.10;99.90;;;;;;5035112;28;20576;-52
2022/03/30 02:44:34;;;;;;;14.38;6.80;;;2.00;99.90;;;;;;5034736;28;20252;-53
2022/03/30 02:47:03;;;;;;;13.75;7.32;;;2.00;99.90;;;;;;5034652;28;20227;-51
2022/03/30 02:49:31;;;;;;;18.65;6.97;;;2.00;99.90;;;;;;5033459;28;20209;-52
2022/03/30 02:51:58;;;;;;;10.93;7.07;;;2.00;99.90;;;;;;5034273;28;20210;-52
2022/03/30 02:54:25;;;;;;;10.82;6.88;;;2.00;99.90;;;;;;5034181;28;20577;-52
2022/03/30 02:56:52;;;;;;;11.55;6.72;;;2.00;99.90;;;;;;5034510;28;20277;-51
2022/03/30 02:59:19;;;;;;;10.30;6.22;;;2.00;99.90;;;;;;5034147;28;20209;-52
2022/03/30 03:01:47;;;;;;;13.13;7.60;;;2.00;99.90;;;;;;5034659;28;20580;-52
2022/03/30 03:04:15;;;;;;;12.68;7.05;;;2.00;99.90;;;;;;5034181;28;20213;-52
2022/03/30 03:06:43;;;;;;;15.95;7.47;;;2.00;99.90;;;;;;5034265;28;20249;-52
2022/03/30 03:09:10;;;;;;;9.52;6.70;;;2.00;99.90;;;;;;5034119;28;20202;-52
2022/03/30 03:11:37;;;;;;;16.25;8.00;;;2.00;99.90;;;;;;5034068;28;20206;-52
2022/03/30 03:14:07;;;;;;;21.73;7.85;;;2.00;99.90;;;;;;5034328;28;20209;-52
2022/03/30 03:16:35;;;;;;;20.88;7.28;;;2.10;99.90;;;;;;5033822;28;20284;-52
2022/03/30 03:19:02;;;;;;;13.23;6.65;;;2.10;99.90;;;;;;5033724;28;20560;-52
2022/03/30 03:21:31;;;;;;;16.40;8.10;;;2.20;99.90;;;;;;5034002;28;20203;-51
2022/03/30 03:23:58;;;;;;;15.93;9.02;;;2.20;99.90;;;;;;5033895;28;20202;-51
2022/03/30 03:26:25;;;;;;;15.05;8.05;;;2.30;99.90;;;;;;5033762;28;20225;-51
2022/03/30 03:28:52;;;;;;;13.07;7.30;;;2.30;99.90;;;;;;5033697;28;20198;-51
2022/03/30 03:31:19;;;;;;;11.50;7.40;;;2.40;99.90;;;;;;5033778;28;20213;-52
2022/03/30 03:33:46;;;;;;;10.30;7.70;;;2.40;99.90;;;;;;5033455;28;20207;-51
2022/03/30 03:36:13;;;;;;;14.07;8.60;;;2.40;99.90;;;;;;5033120;28;20214;-51
2022/03/30 03:38:42;;;;;;;12.18;8.73;;;2.40;99.90;;;;;;5033518;28;20214;-51
2022/03/30 03:41:09;;;;;;;14.02;9.23;;;2.40;99.90;;;;;;5033152;28;20221;-52
2022/03/30 03:43:37;;;;;;;18.33;8.93;;;2.40;99.90;;;;;;5033278;28;20304;-53
2022/03/30 03:46:04;;;;;;;15.65;8.25;;;2.40;99.90;;;;;;5033408;28;20226;-53
2022/03/30 03:48:32;;;;;;;15.40;9.55;;;2.40;99.90;;;;;;5033187;28;20205;-51
2022/03/30 03:50:59;;;;;;;14.45;9.02;;;2.40;99.90;;;;;;5033442;28;20217;-51
2022/03/30 03:53:26;;;;;;;21.50;9.95;;;2.40;99.90;;;;;;5033101;28;20202;-51
2022/03/30 03:55:54;;;;;;;13.73;9.40;;;2.50;99.90;;;;;;5033386;28;20222;-51
2022/03/30 03:58:21;;;;;;;16.25;9.50;;;2.50;99.90;;;;;;5032953;28;20229;-52
2022/03/30 04:00:48;;;;;;;18.25;9.05;;;2.60;99.90;;;;;;5032686;28;20209;-51
2022/03/30 04:03:16;;;;;;;18.85;9.85;;;2.70;99.90;;;;;;5033436;28;20297;-51
2022/03/30 04:05:43;;;;;;;22.00;8.65;;;2.70;99.90;;;;;;5036476;28;20293;-50
2022/03/30 04:09:32;;;;;;;15.68;8.90;;;2.80;99.90;;;;;;5091979;27;20550;-52
2022/03/30 04:12:00;;;;;;;18.30;9.68;;;2.80;99.90;;;;;;5090986;28;20222;-50
2022/03/30 04:14:27;;;;;;;14.52;8.52;;;2.90;99.90;;;;;;5091005;28;20204;-51
2022/03/30 04:16:54;;;;;;;17.42;9.43;;;2.90;99.90;;;;;;5091293;28;20227;-51
2022/03/30 04:19:21;;;;;;;17.17;8.02;;;2.90;99.90;;;;;;5091430;28;20200;-51
2022/03/30 04:21:48;;;;;;;18.60;8.95;;;2.90;99.90;;;;;;5104714;22;20253;-59
2022/03/30 04:24:15;;;;;;;19.88;10.25;;;3.00;99.90;;;;;;5051278;28;20202;-58
2022/03/30 04:26:44;;;;;;;19.75;9.07;;;3.00;99.90;;;;;;5051113;28;20680;-58
2022/03/30 04:29:11;;;;;;;13.73;8.25;;;3.10;99.90;;;;;;5050778;28;20221;-58
2022/03/30 04:31:38;;;;;;;16.42;8.60;;;3.10;99.90;;;;;;5050639;28;20222;-58
2022/03/30 04:34:05;;;;;;;13.88;7.40;;;3.10;99.90;;;;;;5050939;28;20301;-58
2022/03/30 04:36:32;;;;;;;11.18;8.00;;;3.10;99.90;;;;;;5051100;28;20579;-58
2022/03/30 04:38:59;;;;;;;14.23;6.05;;;3.10;99.90;;;;;;5050513;28;20198;-58
2022/03/30 04:41:26;;;;;;;13.85;6.82;;;3.10;99.90;;;;;;5050658;28;20210;-59
2022/03/30 04:43:54;;;;;;;13.48;6.95;;;3.00;99.90;;;;;;5051462;28;20202;-57
2022/03/30 04:46:21;;;;;;;9.88;6.38;;;3.00;99.90;;;;;;5054544;28;20206;-58
2022/03/30 04:48:48;;;;;;;10.88;6.97;;;2.90;99.90;;;;;;5059356;28;20712;-58
2022/03/30 04:51:16;;;;;;;16.10;7.82;;;2.90;99.90;;;;;;5058825;28;20551;-59
2022/03/30 04:53:43;;;;;;;16.20;8.68;;;2.80;99.90;;;;;;5058148;28;20213;-58
2022/03/30 04:56:10;;;;;;;12.18;7.60;;;2.80;99.90;;;;;;5061881;28;20205;-58
2022/03/30 04:58:37;;;;;;;11.98;6.18;;;2.70;99.90;;;;;;5061147;28;20198;-63
2022/03/30 05:01:05;;;;;;;10.68;6.70;;;2.70;99.90;;;;;;5059677;28;20574;-58
2022/03/30 05:03:32;;;;;;;12.93;7.10;;;2.70;99.90;;;;;;5059940;28;20226;-57
2022/03/30 05:06:00;;;;;;;12.00;5.95;;;2.70;99.90;;;;;;5050901;28;20292;-57
2022/03/30 05:08:27;;;;;;;13.98;7.68;;;2.70;99.90;;;;;;5051716;28;20221;-57
2022/03/30 05:10:54;;;;;;;13.70;7.10;;;2.70;99.90;;;;;;5051503;28;20981;-57
2022/03/30 05:13:21;;;;;;;11.15;6.72;;;2.70;99.90;;;;;;5053097;28;20305;-58
2022/03/30 05:15:49;;;;;;;13.70;6.75;;;2.70;99.90;;;;;;5054606;28;20221;-57
2022/03/30 05:18:17;;;;;;;11.50;6.70;;;2.70;99.90;;;;;;5055224;28;20236;-58
2022/03/30 05:20:46;;;;;;;10.25;7.05;;;2.80;99.90;;;;;;5042994;28;20233;-57
2022/03/30 05:23:13;;;;;;;11.38;6.55;;;2.80;99.90;;;;;;5041562;28;20409;-57
2022/03/30 05:25:41;;;;;;;8.68;6.15;;;2.80;99.90;;;;;;5042272;28;20230;-58
2022/03/30 05:28:08;;;;;;;10.07;5.38;;;2.90;99.90;;;;;;5041570;28;20233;-58
2022/03/30 05:30:35;;;;;;;10.95;5.13;;;3.00;99.90;;;;;;5036516;28;20205;-56
2022/03/30 05:33:03;;;;;;;12.25;6.22;;;3.00;99.90;;;;;;5036444;28;20759;-58
2022/03/30 05:35:32;;;;;;;9.48;5.63;;;3.10;99.90;;;;;;5041617;28;20293;-58
2022/03/30 05:37:59;;;;;;;10.80;5.78;;;3.10;99.90;;;;;;5044232;28;20213;-58
2022/03/30 05:40:27;;;;;;;15.38;6.40;;;3.20;99.90;;;;;;5045618;28;20202;-57
2022/03/30 05:42:54;;;;;;;14.75;6.20;;;3.30;99.90;;;;;;5043183;28;20290;-58
2022/03/30 05:45:22;;;;;;;11.85;6.15;;;3.30;99.90;;;;;;5044122;28;20206;-57
2022/03/30 05:47:49;;;;;;;18.67;5.15;;;3.40;99.90;;;;;;5035526;28;20260;-58
2022/03/30 05:50:16;;;;;;;8.63;4.95;;;3.50;99.90;;;;;;5035831;28;20667;-58
2022/03/30 05:52:44;;;;;;;9.32;5.63;;;3.60;99.90;;;;;;5037285;28;20231;-58
2022/03/30 05:55:11;;;;;;;8.68;5.45;;;3.70;99.90;;;;;;5037479;28;20230;-58
2022/03/30 05:57:38;;;;;;;10.52;6.32;;;3.80;99.90;;;;;;5037613;28;20210;-57
2022/03/30 06:00:07;;;;;;;17.63;6.03;;;3.80;99.90;;;;;;5036635;28;20206;-58
2022/03/30 06:02:34;;;;;;;7.07;4.70;;;3.80;99.90;;;;;;5036166;28;20235;-58
2022/03/30 06:05:01;;;;;;;17.35;7.05;;;3.80;99.90;;;;;;5035706;28;20299;-59
2022/03/30 06:07:29;;;;;;;11.00;6.90;;;3.80;99.90;;;;;;5035944;28;20199;-58
2022/03/30 06:09:58;;;;;;;31.27;7.72;;;3.80;99.90;;;;;;5037280;28;20218;-58
2022/03/30 06:12:25;;;;;;;16.25;6.60;;;3.80;99.90;;;;;;5043298;28;20227;-59
2022/03/30 06:14:53;;;;;;;17.52;6.60;;;3.80;99.90;;;;;;5044431;28;20283;-58
2022/03/30 06:17:21;;;;;;;27.65;7.93;;;3.90;99.90;;;;;;5044185;28;20213;-58
2022/03/30 06:19:51;;;;;;;10.68;5.97;;;4.00;99.90;;;;;;5045309;28;20199;-57
2022/03/30 06:22:19;;;;;;;14.45;5.78;;;4.10;99.90;;;;;;5044232;28;20778;-57
2022/03/30 06:24:47;;;;;;;10.15;4.60;;;4.20;99.90;;;;;;5043407;28;20210;-58
2022/03/30 06:27:16;;;;;;;11.02;6.60;;;4.30;99.90;;;;;;5036491;28;20689;-57
2022/03/30 06:29:43;;;;;;;13.70;5.72;;;4.40;99.90;;;;;;5037189;28;20233;-58
2022/03/30 06:32:10;;;;;;;12.13;5.47;;;4.50;99.90;;;;;;5035528;28;20225;-57
2022/03/30 06:34:38;;;;;;;9.90;5.38;;;4.60;99.90;;;;;;5036326;28;20280;-57
2022/03/30 06:37:06;;;;;;;13.75;6.40;;;4.60;99.90;;;;;;5035933;28;20206;-57
2022/03/30 06:39:33;;;;;;;15.55;7.05;;;4.60;99.90;;;;;;5035218;28;20667;-59
2022/03/30 06:42:00;;;;;;;11.38;5.28;;;4.60;99.90;;;;;;5035092;28;20560;-57
2022/03/30 06:44:29;;;;;;;13.05;6.03;;;4.60;99.90;;;;;;5033727;28;20203;-57
2022/03/30 06:46:56;;;;;;;9.63;5.70;;;4.70;99.90;;;;;;5036810;28;20214;-59
2022/03/30 06:49:23;;;;;;;9.80;4.47;;;4.70;99.90;;;;;;5034620;28;20223;-56
2022/03/30 06:51:52;;;;;;;12.48;5.63;;;4.70;99.90;;;;;;5034636;28;20307;-59
2022/03/30 06:54:19;;;;;;;12.63;4.75;;;4.80;99.90;;;;;;5034979;28;20199;-57
2022/03/30 06:56:46;;;;;;;14.52;5.55;;;4.90;99.90;;;;;;5035426;28;20217;-58
2022/03/30 06:59:14;;;;;;;6.25;4.10;;;5.00;99.90;;;;;;5033641;28;20195;-57
2022/03/30 07:01:42;;;;;;;10.05;5.18;;;5.10;99.50;;;;;;5033921;28;20289;-58
2022/03/30 07:04:09;;;;;;;11.48;5.53;;;5.20;99.10;;;;;;5034336;28;20207;-56
2022/03/30 07:06:36;;;;;;;14.13;6.45;;;5.30;98.70;;;;;;5034312;28;20209;-58
2022/03/30 07:11:48;;;;;;;13.32;5.22;;;5.80;97.50;;;;;;5034104;28;20773;-58
2022/03/30 07:14:15;;;;;;;8.38;4.10;;;5.90;96.20;;;;;;5034115;28;20207;-58
2022/03/30 07:16:44;;;;;;;17.30;4.60;;;6.10;95.90;;;;;;5033548;28;20208;-58
2022/03/30 07:19:11;;;;;;;11.45;5.40;;;6.10;94.90;;;;;;5034034;28;20227;-58
2022/03/30 07:21:38;;;;;;;14.90;4.65;;;6.20;94.40;;;;;;5033659;28;20762;-58
2022/03/30 07:24:06;;;;;;;15.80;4.75;;;6.30;94.20;;;;;;5034265;28;20202;-59
2022/03/30 07:26:33;;;;;;;9.88;4.70;;;6.40;93.50;;;;;;5034581;28;20663;-58
2022/03/30 07:29:00;;;;;;;13.77;4.95;;;6.60;92.90;;;;;;5034818;28;20230;-58
2022/03/30 07:31:27;;;;;;;11.52;4.50;;;6.70;92.30;;;;;;5035179;28;20203;-58
2022/03/30 07:33:56;;;;;;;13.55;5.00;;;6.70;91.60;;;;;;5033967;28;20231;-57
2022/03/30 07:36:23;;;;;;;9.57;4.50;;;6.70;91.20;;;;;;5034074;28;20205;-58
2022/03/30 07:38:50;;;;;;;9.38;3.80;;;6.80;90.80;;;;;;5033825;28;20206;-59
2022/03/30 07:41:17;;;;;;;13.38;4.07;;;6.90;90.20;;;;;;5033321;28;20216;-59
2022/03/30 07:43:45;;;;;;;9.98;3.75;;;6.90;89.00;;;;;;5033248;28;20208;-58
2022/03/30 07:46:13;;;;;;;9.10;3.42;;;7.00;88.00;;;;;;5034206;28;20209;-58
2022/03/30 07:48:40;;;;;;;11.60;3.20;;;7.00;86.20;;;;;;5033554;28;20255;-57
2022/03/30 07:51:10;;;;;;;10.55;3.97;;;7.00;84.50;;;;;;5032737;28;20207;-59
2022/03/30 07:53:37;;;;;;;9.65;3.13;;;7.00;84.20;;;;;;5033626;28;20222;-58
2022/03/30 07:56:04;;;;;;;10.13;4.43;;;7.00;83.10;;;;;;5033150;28;20208;-57
2022/03/30 07:58:31;;;;;;;14.82;4.22;;;7.10;81.80;;;;;;5032677;28;20675;-57
2022/03/30 08:00:59;;;;;;;12.05;4.13;;;7.10;80.20;;;;;;5033163;28;20452;-58
2022/03/30 08:03:26;;;;;;;10.45;3.65;;;7.00;78.30;;;;;;5033555;28;20252;-57
2022/03/30 08:05:53;;;;;;;10.35;3.22;;;7.00;78.10;;;;;;5033885;28;20673;-58
2022/03/30 08:08:22;;;;;;;7.82;3.15;;;7.00;77.70;;;;;;5035745;28;20266;-60
2022/03/30 08:10:50;;;;;;;8.13;3.53;;;7.00;77.50;;;;;;5052024;28;20199;-60
2022/03/30 08:13:17;;;;;;;11.82;4.20;;;7.10;76.70;;;;;;5045956;28;20270;-59
2022/03/30 08:15:44;;;;;;;12.82;4.55;;;7.10;76.80;;;;;;5035401;28;20547;-59
2022/03/30 08:18:11;;;;;;;16.77;4.35;;;7.20;76.40;;;;;;5035719;28;20272;-59
2022/03/30 08:23:24;;;;;;;17.00;4.40;;;7.40;74.90;;;;;;5032568;28;20464;-58
2022/03/30 08:25:51;;;;;;;11.55;3.78;;;7.60;73.40;;;;;;5032017;28;20203;-58
2022/03/30 08:28:18;;;;;;;14.38;4.55;;;7.70;72.40;;;;;;5037203;28;20216;-58
2022/03/30 08:30:45;;;;;;;12.80;3.70;;;7.80;72.00;;;;;;5035964;28;20231;-58
2022/03/30 08:33:15;;;;;;;14.98;4.30;;;7.80;71.60;;;;;;5033073;28;20235;-58
2022/03/30 08:35:42;;;;;;;10.77;3.75;;;7.90;71.20;;;;;;5033845;28;20205;-59
2022/03/30 08:38:10;;;;;;;13.45;3.92;;;8.00;70.90;;;;;;5032954;28;20298;-58
2022/03/30 08:40:39;;;;;;;10.05;3.75;;;8.10;70.50;;;;;;5032523;28;20202;-58
2022/03/30 08:43:07;;;;;;;13.43;4.38;;;8.10;69.00;;;;;;5033355;28;20255;-57
2022/03/30 08:45:34;;;;;;;8.40;3.25;;;8.10;68.30;;;;;;5032755;28;20202;-58
2022/03/30 08:48:01;;;;;;;7.43;3.75;;;8.10;68.10;;;;;;5033201;28;20204;-57
2022/03/30 08:50:29;;;;;;;5.07;3.30;;;8.00;67.30;;;;;;5032243;28;20698;-56
2022/03/30 08:52:59;;;;;;;9.25;4.30;;;7.90;66.90;;;;;;5033085;28;20222;-57
2022/03/30 08:55:26;;;;;;;10.50;3.45;;;8.00;66.10;;;;;;5035555;28;20195;-58
2022/03/30 08:57:55;;;;;;;7.25;2.75;;;8.00;65.70;;;;;;5036260;28;20244;-58
2022/03/30 09:00:24;;;;;;;9.50;3.45;;;8.00;65.00;;;;;;5036949;28;20202;-58
2022/03/30 09:02:58;;;;;;;7.10;3.53;;;8.10;64.60;;;;;;5035752;28;20701;-58
2022/03/30 09:05:29;;;;;;;12.38;3.75;;;8.40;64.10;;;;;;5036682;28;20192;-57
2022/03/30 09:08:08;;;;;;;10.23;3.97;;;8.70;62.30;;;;;;5036829;28;20235;-58
2022/03/30 09:10:36;;;;;;;9.90;3.35;;;8.90;61.00;;;;;;5036343;28;20247;-57
2022/03/30 09:13:06;;;;;;;11.07;3.97;;;9.00;59.80;;;;;;5035757;28;20230;-57
2022/03/30 09:15:35;;;;;;;9.50;3.63;;;9.20;59.60;;;;;;5036527;28;20438;-58
2022/03/30 09:18:05;;;;;;;12.07;3.73;;;9.20;59.00;;;;;;5036571;28;20294;-57
2022/03/30 09:20:32;;;;;;;13.27;4.30;;;9.30;58.90;;;;;;5035310;28;20817;-58
2022/03/30 09:23:01;;;;;;;10.13;3.93;;;9.50;58.20;;;;;;5035316;28;20480;-59
2022/03/30 09:25:30;;;;;;;12.93;4.43;;;9.60;57.30;;;;;;5036653;28;20445;-56
2022/03/30 09:28:00;;;;;;;9.53;3.40;;;9.80;56.70;;;;;;5036566;28;20815;-58
2022/03/30 09:30:29;;;;;;;10.70;4.73;;;9.90;56.00;;;;;;5035396;28;20486;-57
2022/03/30 09:32:58;;;;;;;11.33;4.20;;;10.10;54.40;;;;;;5035839;28;20559;-59
2022/03/30 09:35:28;;;;;;;10.27;3.23;;;10.20;54.10;;;;;;5035978;28;20453;-57
2022/03/30 09:38:08;;;;;;;10.90;3.67;;;10.30;53.10;;;;;;5035265;28;20886;-58
2022/03/30 09:40:42;;;;;;;12.53;4.23;;;10.20;52.50;;;;;;5036089;28;20478;-57
2022/03/30 09:43:23;;;;;;;9.73;4.03;;;10.20;52.50;;;;;;5035313;28;20465;-59
2022/03/30 09:46:08;;;;;;;10.23;3.80;;;10.20;52.50;;;;;;5036466;28;20456;-60
2022/03/30 09:48:39;;;;;;;10.93;4.30;;;10.20;52.20;;;;;;5035945;28;20441;-58
2022/03/30 09:51:07;;;;;;;11.80;3.90;;;10.20;51.80;;;;;;5034835;28;20557;-58
2022/03/30 09:53:36;;;;;;;9.30;3.73;;;10.30;51.70;;;;;;5035708;28;20540;-58
2022/03/30 09:56:05;;;;;;;6.73;3.20;;;10.40;51.40;;;;;;5035499;28;20460;-58
2022/03/30 09:58:34;;;;;;;14.33;4.83;;;10.40;50.60;;;;;;5035444;28;20483;-58
2022/03/30 10:01:22;;;;;;;20.47;4.67;;;10.30;50.40;;;;;;5034471;28;20446;-58
2022/03/30 10:03:52;;;;;;;14.17;5.53;;;10.30;50.10;;;;;;5034514;28;20439;-59
2022/03/30 10:06:21;;;;;;;14.57;4.70;;;10.30;50.00;;;;;;5034812;28;20449;-59
2022/03/30 10:08:50;;;;;;;9.73;3.60;;;10.30;49.70;;;;;;5035133;28;20451;-59
2022/03/30 10:11:18;;;;;;;12.50;5.33;;;10.30;49.60;;;;;;5034734;28;20505;-60
2022/03/30 10:13:46;;;;;;;11.60;4.43;;;10.50;49.30;;;;;;5033836;28;20560;-59
2022/03/30 10:16:16;;;;;;;13.43;5.20;;;10.70;48.60;;;;;;5034890;28;20489;-60
2022/03/30 10:18:46;;;;;;;9.30;3.87;;;10.90;48.20;;;;;;5033506;28;20470;-57
2022/03/30 10:21:23;;;;;;;13.57;5.33;;;11.10;47.50;;;;;;5034878;28;20452;-58
2022/03/30 10:24:15;;;;;;;15.07;5.03;;;11.40;47.20;;;;;;5035064;28;20439;-58
2022/03/30 10:26:53;;;;;;;11.50;4.27;;;11.60;46.70;;;;;;5034038;28;20452;-59
2022/03/30 10:29:24;;;;;;;7.63;4.03;;;11.80;45.70;;;;;;5035136;28;20473;-58
2022/03/30 10:32:15;;;;;;;8.30;2.77;;;11.80;45.60;;;;;;5034934;28;20491;-57
2022/03/30 10:34:51;;;;;;;7.73;3.07;;;11.60;45.40;;;;;;5033925;28;20432;-60
2022/03/30 10:37:25;;;;;;;6.13;2.80;;;11.50;45.70;;;;;;5034958;28;20455;-59
2022/03/30 10:40:04;;;;;;;7.87;2.20;;;11.40;45.90;;;;;;5034258;28;20441;-57
2022/03/30 10:42:57;;;;;;;8.30;2.33;;;11.50;45.80;;;;;;5033901;28;20969;-58
2022/03/30 10:45:25;;;;;;;6.03;2.50;;;11.50;45.40;;;;;;5014731;28;20948;-58
2022/03/30 10:48:10;;;;;;;8.13;3.07;;;11.40;45.00;;;;;;5021033;28;20856;-60
2022/03/30 10:50:42;;;;;;;6.20;3.40;;;11.40;44.70;;;;;;5034655;28;20554;-60
2022/03/30 10:53:47;;;;;;;6.17;2.93;;;11.50;44.50;;;;;;5034995;28;21010;-59
2022/03/30 10:56:34;;;;;;;6.93;2.90;;;11.70;44.20;;;;;;5034301;28;20455;-59
2022/03/30 10:59:12;;;;;;;4.87;3.10;;;11.80;43.60;;;;;;5034493;28;20444;-59
2022/03/30 11:01:41;;;;;;;7.13;2.97;;;11.90;43.60;;;;;;5034878;28;20518;-59
2022/03/30 11:04:25;;;;;;;3.40;2.10;;;12.20;43.60;;;;;;5034519;28;20919;-59
2022/03/30 11:07:40;;;;;;;5.37;2.70;;;12.30;43.20;;;;;;5034714;28;20910;-59
2022/03/30 11:10:19;;;;;;;7.17;2.60;;;12.00;43.30;;;;;;5034543;28;20515;-59
2022/03/30 11:13:05;;;;;;;10.00;3.10;;;11.90;43.60;;;;;;5034009;28;20983;-59
2022/03/30 11:15:48;;;;;;;4.43;2.53;;;12.00;43.80;;;;;;5014922;28;20436;-59
2022/03/30 11:18:20;;;;;;;7.60;2.80;;;11.90;43.80;;;;;;5013834;28;20454;-59
2022/03/30 11:21:16;;;;;;;8.03;2.90;;;11.80;44.00;;;;;;5014513;28;20451;-59
2022/03/30 11:24:03;;;;;;;5.00;2.50;;;11.80;44.00;;;;;;5034515;28;20447;-59
2022/03/30 11:27:02;;;;;;;9.40;2.70;;;11.80;43.80;;;;;;5036352;28;20437;-59
2022/03/30 11:29:48;;;;;;;5.93;2.57;;;11.90;43.70;;;;;;5027529;28;20511;-62
2022/03/30 11:32:37;;;;;;;6.60;2.53;;;12.00;43.50;;;;;;5034912;28;20477;-59
2022/03/30 11:35:06;;;;;;;5.40;2.77;;;12.10;43.10;;;;;;5035364;28;20434;-60
2022/03/30 11:37:35;;;;;;;8.90;2.53;;;12.10;43.00;;;;;;5034860;28;20447;-58
2022/03/30 11:40:04;;;;;;;7.07;2.90;;;12.00;42.90;;;;;;5035493;28;20445;-59
2022/03/30 11:42:32;;;;;;;4.80;2.70;;;12.00;42.90;;;;;;5034391;28;20510;-58
2022/03/30 11:45:19;;;;;;;9.60;2.90;;;12.00;42.60;;;;;;5034338;28;20453;-57
2022/03/30 11:47:48;;;;;;;5.30;2.60;;;11.90;42.90;;;;;;5034886;28;20487;-58
2022/03/30 11:50:20;;;;;;;5.17;2.70;;;11.90;42.80;;;;;;5032633;28;20852;-58
2022/03/30 11:52:54;;;;;;;6.00;2.70;;;11.90;42.60;;;;;;5034073;28;20472;-60
2022/03/30 11:55:21;;;;;;;7.20;2.87;;;11.80;42.60;;;;;;5032786;28;20449;-59
2022/03/30 11:57:52;;;;;;;4.13;2.50;;;11.90;42.90;;;;;;5034434;28;20453;-59
2022/03/30 12:00:24;;;;;;;5.97;2.47;;;12.10;42.70;;;;;;5034781;28;20453;-59
2022/03/30 12:02:54;;;;;;;5.53;2.30;;;12.20;42.40;;;;;;5030456;28;21100;-59
2022/03/30 12:05:22;;;;;;;6.80;2.80;;;12.10;42.00;;;;;;5031046;28;20448;-59
2022/03/30 12:07:54;;;;;;;6.73;2.80;;;12.10;42.30;;;;;;5035008;28;20448;-59
2022/03/30 12:10:26;;;;;;;6.13;2.40;;;12.10;42.40;;;;;;5037009;28;20467;-58
2022/03/30 12:12:53;;;;;;;5.23;2.97;;;12.10;42.60;;;;;;5039485;28;20560;-58
2022/03/30 12:15:22;;;;;;;6.07;3.00;;;12.30;42.90;;;;;;5040343;28;20527;-59
2022/03/30 12:17:54;;;;;;;7.93;2.80;;;12.40;42.70;;;;;;5046460;28;20452;-58
2022/03/30 12:20:29;;;;;;;6.20;2.63;;;12.60;42.30;;;;;;5047865;28;20455;-58
2022/03/30 12:22:59;;;;;;;5.90;2.87;;;12.60;41.80;;;;;;5046398;28;20508;-59
2022/03/30 12:25:29;;;;;;;5.30;2.63;;;12.60;41.40;;;;;;5048710;28;20443;-61
2022/03/30 12:27:56;;;;;;;4.83;2.80;;;12.50;41.60;;;;;;5050464;28;20461;-59
2022/03/30 12:30:26;;;;;;;7.83;2.80;;;12.60;41.50;;;;;;5052001;28;20498;-58
2022/03/30 12:32:53;;;;;;;5.53;3.10;;;12.50;41.50;;;;;;5048863;28;20461;-59
2022/03/30 12:35:21;;;;;;;3.63;2.37;;;12.50;41.50;;;;;;5043732;28;20465;-59
2022/03/30 12:37:49;;;;;;;9.90;3.13;;;12.60;41.60;;;;;;5049494;28;20930;-58
2022/03/30 12:40:20;;;;;;;8.77;2.90;;;12.80;41.50;;;;;;5050331;28;20441;-59
2022/03/30 12:42:48;;;;;;;5.53;3.40;;;13.10;41.40;;;;;;5049287;28;20958;-59
2022/03/30 12:45:16;;;;;;;7.00;2.57;;;13.10;41.00;;;;;;5049499;28;20457;-59
2022/03/30 12:47:51;;;;;;;9.23;2.83;;;13.20;41.00;;;;;;5048985;28;20519;-58
2022/03/30 12:50:23;;;;;;;10.40;3.77;;;13.20;40.80;;;;;;5041340;28;21033;-59
2022/03/30 12:52:52;;;;;;;6.23;2.80;;;13.30;40.90;;;;;;5045036;28;20468;-58
2022/03/30 12:55:24;;;;;;;5.83;3.00;;;13.40;40.60;;;;;;5042178;28;20451;-58
2022/03/30 12:58:02;;;;;;;6.93;3.23;;;13.40;40.50;;;;;;5042911;28;20447;-59
2022/03/30 13:00:34;;;;;;;6.03;2.93;;;13.30;40.50;;;;;;5041999;28;20480;-59
2022/03/30 13:03:12;;;;;;;5.73;3.07;;;13.20;40.70;;;;;;5038938;28;20487;-58
2022/03/30 13:05:41;;;;;;;7.20;2.70;;;13.10;41.10;;;;;;5037318;28;20781;-59
2022/03/30 13:08:11;;;;;;;7.60;3.47;;;13.10;41.20;;;;;;5036485;28;20448;-58
2022/03/30 13:10:57;;;;;;;6.80;2.80;;;12.80;41.10;;;;;;5037301;28;20478;-58